createdAt,value
2022-12-13T00:01:46.197Z,68.30
2022-12-13T00:04:13.969Z,68.30
2022-12-13T00:06:41.503Z,68.20
2022-12-13T00:09:46.035Z,68.20
2022-12-13T00:15:36.401Z,68.20
2022-12-13T00:18:22.414Z,68.20
2022-12-13T00:20:49.965Z,68.10
2022-12-13T00:23:17.567Z,68.10
2022-12-13T00:34:41.005Z,67.90
2022-12-13T00:40:12.660Z,67.80
2022-12-13T00:42:40.178Z,67.60
2022-12-13T00:45:26.086Z,67.70
2022-12-13T00:47:55.104Z,67.50
2022-12-13T00:50:22.629Z,67.70
2022-12-13T00:53:08.459Z,67.70
2022-12-13T00:55:40.961Z,67.50
2022-12-13T00:58:08.542Z,67.70
2022-12-13T01:01:02.127Z,67.70
2022-12-13T01:03:31.249Z,67.50
2022-12-13T01:06:17.931Z,67.60
2022-12-13T01:09:04.061Z,67.40
2022-12-13T01:14:35.448Z,67.40
2022-12-13T01:17:21.563Z,67.60
2022-12-13T01:22:35.621Z,67.50
2022-12-13T01:25:21.748Z,67.50
2022-12-13T01:31:14.581Z,67.40
2022-12-13T01:33:42.260Z,67.40
2022-12-13T01:36:13.410Z,67.40
2022-12-13T01:45:20.438Z,67.00
2022-12-13T01:53:48.496Z,67.20
2022-12-13T01:56:17.883Z,67.10
2022-12-13T01:58:45.361Z,67.10
2022-12-13T02:01:31.116Z,67.10
2022-12-13T02:03:58.652Z,66.80
2022-12-13T02:07:03.037Z,67.10
2022-12-13T02:09:32.072Z,66.80
2022-12-13T02:11:59.731Z,67.10
2022-12-13T02:14:27.206Z,67.10
2022-12-13T02:20:10.428Z,67.00
2022-12-13T02:23:14.931Z,66.90
2022-12-13T02:25:56.996Z,66.90
2022-12-13T02:28:35.428Z,67.10
2022-12-13T02:34:11.652Z,67.00
2022-12-13T02:36:42.206Z,67.10
2022-12-13T02:39:10.897Z,67.10
2022-12-13T02:44:51.372Z,66.90
2022-12-13T02:47:22.619Z,67.20
2022-12-13T02:49:52.098Z,67.20
2022-12-13T02:55:07.580Z,67.20
2022-12-13T02:57:36.423Z,67.30
2022-12-13T03:00:08.276Z,67.30
2022-12-13T03:02:46.868Z,67.30
2022-12-13T03:05:34.649Z,67.30
2022-12-13T03:08:21.665Z,67.20
2022-12-13T03:10:55.696Z,67.20
2022-12-13T03:13:24.785Z,67.30
2022-12-13T03:15:54.743Z,67.50
2022-12-13T03:21:48.096Z,67.40
2022-12-13T03:24:17.635Z,67.40
2022-12-13T03:26:45.337Z,67.50
2022-12-13T03:35:02.750Z,67.50
2022-12-13T03:37:48.686Z,67.50
2022-12-13T03:40:16.267Z,67.50
2022-12-13T03:43:02.103Z,67.60
2022-12-13T03:45:29.592Z,67.40
2022-12-13T03:48:22.493Z,67.60
2022-12-13T03:50:53.319Z,67.40
2022-12-13T03:53:23.300Z,67.60
2022-12-13T03:56:03.487Z,67.60
2022-12-13T03:58:35.281Z,67.60
2022-12-13T04:04:26.123Z,67.50
2022-12-13T04:06:55.250Z,67.80
2022-12-13T04:09:41.481Z,67.70
2022-12-13T04:12:09.298Z,67.60
2022-12-13T04:14:36.862Z,67.60
2022-12-13T04:17:22.920Z,67.50
2022-12-13T04:19:50.420Z,67.50
2022-12-13T04:22:24.741Z,67.50
2022-12-13T04:31:36.044Z,67.30
2022-12-13T04:34:03.560Z,67.30
2022-12-13T04:36:49.695Z,67.50
2022-12-13T04:39:22.499Z,67.40
2022-12-13T04:41:50.831Z,68.20
2022-12-13T04:44:54.986Z,67.40
2022-12-13T04:47:22.485Z,67.20
2022-12-13T04:49:50.129Z,67.50
2022-12-13T04:52:22.146Z,67.40
2022-12-13T04:57:55.325Z,67.40
2022-12-13T05:06:29.512Z,67.50
2022-12-13T05:09:15.566Z,67.50
2022-12-13T05:11:45.927Z,67.50
2022-12-13T05:16:59.062Z,67.50
2022-12-13T05:19:31.335Z,67.50
2022-12-13T05:22:01.244Z,67.50
2022-12-13T05:30:04.281Z,67.50
2022-12-13T05:32:33.799Z,67.60
2022-12-13T05:35:13.052Z,67.50
2022-12-13T05:38:18.048Z,67.60
2022-12-13T05:43:50.012Z,67.60
2022-12-13T05:49:39.596Z,67.50
